Terminal Aerodrome Forecast
Issued by NWS Albany, NY

Home | Current Version | Previous Version | Text Only | Print | Product List | Glossary On
Versions: 1 2 3 4 5 6 7 8 9 10 11 12 13 14 15 16
000
FTUS41 KALY 210300 AAB
TAFPOU
TAF AMD
KPOU 210307Z 2103/2124 00000KT P6SM SCT020
     FM210800 00000KT 6SM BR VCSH OVC015
     FM211400 19005KT P6SM BKN015 OVC025
     FM211600 21006KT P6SM BKN040
     FM212300 22005KT P6SM VCSH BKN050=

USA.gov is the U.S. government's official web portal to all federal, state and local government web resources and services.